createdAt,value
2018-06-29T00:01:29.428Z,98511.03
2018-06-29T00:03:41.783Z,98514.61
2018-06-29T00:05:54.230Z,98513.64
2018-06-29T00:08:06.577Z,98514.86
2018-06-29T00:10:19.539Z,98516.28
2018-06-29T00:12:31.890Z,98517.23
2018-06-29T00:14:44.214Z,98517.72
2018-06-29T00:16:56.634Z,98513.41
2018-06-29T00:19:08.949Z,98516.66
2018-06-29T00:21:21.425Z,98510.44
2018-06-29T00:23:33.779Z,98513.80
2018-06-29T00:25:46.081Z,98520.70
2018-06-29T00:27:58.445Z,98520.70
2018-06-29T00:30:10.846Z,98517.48
2018-06-29T00:32:23.234Z,98520.45
2018-06-29T00:34:35.608Z,98513.89
2018-06-29T00:36:47.953Z,98515.69
2018-06-29T00:39:00.307Z,98521.52
2018-06-29T00:41:12.671Z,98520.44
2018-06-29T00:43:25.055Z,98518.89
2018-06-29T00:45:37.634Z,98522.11
2018-06-29T00:47:49.869Z,98518.31
2018-06-29T00:50:02.328Z,98520.36
2018-06-29T00:52:14.929Z,98518.70
2018-06-29T00:54:27.299Z,98521.08
2018-06-29T00:56:39.730Z,98516.33
2018-06-29T00:58:52.126Z,98519.20
2018-06-29T01:01:04.581Z,98520.89
2018-06-29T01:03:17.122Z,98521.87
2018-06-29T01:05:29.558Z,98522.21
2018-06-29T01:07:42.065Z,98523.63
2018-06-29T01:09:54.460Z,98516.47
2018-06-29T01:12:06.802Z,98521.48
2018-06-29T01:14:19.138Z,98525.17
2018-06-29T01:16:31.614Z,98520.41
2018-06-29T01:18:44.014Z,98518.61
2018-06-29T01:20:56.493Z,98520.27
2018-06-29T01:23:09.101Z,98516.47
2018-06-29T01:25:21.410Z,98517.55
2018-06-29T01:27:33.842Z,98517.78
2018-06-29T01:29:46.182Z,98522.69
2018-06-29T01:31:58.494Z,98509.56
2018-06-29T01:34:10.986Z,98512.78
2018-06-29T01:36:23.418Z,98502.14
2018-06-29T01:38:35.789Z,98506.32
2018-06-29T01:40:48.143Z,98502.86
2018-06-29T01:43:00.463Z,98503.34
2018-06-29T01:45:12.795Z,98498.45
2018-06-29T01:47:25.385Z,98497.13
2018-06-29T01:49:37.871Z,98492.85
2018-06-29T01:51:50.239Z,98491.78
2018-06-29T01:54:02.891Z,98488.68
2018-06-29T01:56:15.262Z,98490.96
2018-06-29T01:58:27.623Z,98490.82
2018-06-29T02:00:39.946Z,98485.57
2018-06-29T02:02:52.343Z,98493.10
2018-06-29T02:05:04.812Z,98491.92
2018-06-29T02:07:17.151Z,98488.58
2018-06-29T02:09:29.602Z,98488.00
2018-06-29T02:11:42.103Z,98495.77
2018-06-29T02:13:54.838Z,98495.42
2018-06-29T02:16:07.410Z,98492.56
2018-06-29T02:18:19.780Z,98486.24
2018-06-29T02:20:32.141Z,98486.59
2018-06-29T02:22:44.548Z,98481.44
2018-06-29T02:24:57.002Z,98485.72
2018-06-29T02:27:09.378Z,98481.54
2018-06-29T02:29:21.843Z,98474.25
2018-06-29T02:31:34.183Z,98465.98
2018-06-29T02:33:46.542Z,98463.11
2018-06-29T02:35:59.251Z,98466.20
2018-06-29T02:38:11.589Z,98465.33
2018-06-29T02:40:24.034Z,98464.25
2018-06-29T02:42:36.346Z,98464.83
2018-06-29T02:44:48.821Z,98465.52
2018-06-29T02:47:01.175Z,98467.55
2018-06-29T02:49:13.634Z,98468.27
2018-06-29T02:51:25.970Z,98470.61
2018-06-29T02:53:38.330Z,98467.24
2018-06-29T02:55:50.679Z,98467.81
2018-06-29T02:58:03.114Z,98463.66
2018-06-29T03:00:15.515Z,98455.78
2018-06-29T03:02:27.892Z,98453.73
2018-06-29T03:04:40.201Z,98454.59
2018-06-29T03:06:52.552Z,98462.81
2018-06-29T03:09:06.903Z,98467.09
2018-06-29T03:11:19.447Z,98472.11
2018-06-29T03:13:31.882Z,98473.80
2018-06-29T03:15:44.200Z,98480.95
2018-06-29T03:17:56.621Z,98470.94
2018-06-29T03:20:09.044Z,98475.84
2018-06-29T03:22:21.549Z,98475.84
2018-06-29T03:24:33.970Z,98473.22
2018-06-29T03:26:46.270Z,98469.48
2018-06-29T03:28:58.594Z,98471.91
2018-06-29T03:31:10.947Z,98462.72
2018-06-29T03:33:23.282Z,98470.59
2018-06-29T03:35:35.650Z,98474.53
2018-06-29T03:37:47.982Z,98475.02
2018-06-29T03:40:00.322Z,98468.91
2018-06-29T03:42:12.727Z,98468.31
2018-06-29T03:44:25.179Z,98469.14
2018-06-29T03:46:37.566Z,98469.97
2018-06-29T03:48:50.081Z,98459.84
2018-06-29T03:51:02.522Z,98452.22
2018-06-29T03:53:14.850Z,98455.78
2018-06-29T03:55:27.462Z,98452.81
2018-06-29T03:57:39.786Z,98464.14
2018-06-29T03:59:52.289Z,98458.78
2018-06-29T04:02:04.654Z,98462.72
2018-06-29T04:04:17.058Z,98464.97
2018-06-29T04:06:29.527Z,98466.66
2018-06-29T04:08:41.966Z,98467.48
2018-06-29T04:10:54.310Z,98469.63
2018-06-29T04:13:06.727Z,98462.34
2018-06-29T04:15:19.134Z,98476.79
2018-06-29T04:17:31.486Z,98475.47
2018-06-29T04:19:43.822Z,98478.59
2018-06-29T04:21:56.318Z,98477.49
2018-06-29T04:24:08.697Z,98474.18
2018-06-29T04:26:21.023Z,98475.84
2018-06-29T04:28:33.361Z,98479.16
2018-06-29T04:30:45.753Z,98475.43
2018-06-29T04:32:58.151Z,98466.98
2018-06-29T04:35:11.486Z,98461.07
2018-06-29T04:37:23.857Z,98469.52
2018-06-29T04:39:36.175Z,98466.49
2018-06-29T04:41:48.505Z,98462.74
2018-06-29T04:44:00.953Z,98464.30
2018-06-29T04:46:13.406Z,98463.86
2018-06-29T04:48:25.936Z,98457.09
2018-06-29T04:50:38.307Z,98458.08
2018-06-29T04:52:50.621Z,98447.84
2018-06-29T04:55:03.023Z,98448.13
2018-06-29T04:57:15.381Z,98443.47
2018-06-29T04:59:27.709Z,98439.39
2018-06-29T05:01:40.031Z,98445.41
2018-06-29T05:03:52.729Z,98443.34
2018-06-29T05:06:05.367Z,98443.06
2018-06-29T05:08:17.778Z,98445.95
2018-06-29T05:10:30.138Z,98444.52
2018-06-29T05:12:45.211Z,98443.55
2018-06-29T05:14:57.577Z,98449.44
2018-06-29T05:17:09.926Z,98445.84
2018-06-29T05:19:22.426Z,98447.45
2018-06-29T05:21:34.985Z,98450.16
2018-06-29T05:23:47.298Z,98454.45
2018-06-29T05:25:59.778Z,98458.59
2018-06-29T05:28:12.134Z,98459.52
2018-06-29T05:30:24.515Z,98459.78
2018-06-29T05:32:37.214Z,98457.44
2018-06-29T05:34:49.618Z,98461.00
2018-06-29T05:37:02.046Z,98469.31
2018-06-29T05:39:14.466Z,98468.30
2018-06-29T05:41:26.903Z,98463.38
2018-06-29T05:43:39.127Z,98461.97
2018-06-29T05:45:51.513Z,98463.66
2018-06-29T05:48:03.958Z,98461.73
2018-06-29T05:50:16.426Z,98464.70
2018-06-29T05:52:28.958Z,98467.05
2018-06-29T05:54:41.289Z,98466.35
2018-06-29T05:56:53.658Z,98466.36
2018-06-29T05:59:06.114Z,98467.73
2018-06-29T06:01:18.571Z,98473.70
2018-06-29T06:03:30.940Z,98470.78
2018-06-29T06:05:43.388Z,98467.23
2018-06-29T06:07:55.796Z,98472.58
2018-06-29T06:10:08.440Z,98473.67
2018-06-29T06:12:20.818Z,98475.38
2018-06-29T06:14:33.160Z,98476.05
2018-06-29T06:16:45.546Z,98474.73
2018-06-29T06:19:09.118Z,98481.97
2018-06-29T06:21:21.549Z,98479.25
2018-06-29T06:23:34.281Z,98475.63
2018-06-29T06:25:48.066Z,98480.50
2018-06-29T06:28:00.493Z,98474.25
2018-06-29T06:30:12.858Z,98469.54
2018-06-29T06:32:25.549Z,98469.69
2018-06-29T06:34:37.938Z,98450.21
2018-06-29T06:36:50.305Z,98451.28
2018-06-29T06:39:02.875Z,98449.31
2018-06-29T06:41:15.233Z,98448.50
2018-06-29T06:43:27.769Z,98460.75
2018-06-29T06:45:40.276Z,98454.90
2018-06-29T06:47:52.636Z,98453.17
2018-06-29T06:50:05.275Z,98458.06
2018-06-29T06:52:17.604Z,98458.69
2018-06-29T06:54:30.314Z,98452.63
2018-06-29T06:56:42.642Z,98463.84
2018-06-29T06:58:55.043Z,98453.73
2018-06-29T07:01:07.373Z,98457.92
2018-06-29T07:03:19.748Z,98451.63
2018-06-29T07:05:32.134Z,98450.88
2018-06-29T07:07:44.598Z,98450.88
2018-06-29T07:09:57.005Z,98448.73
2018-06-29T07:12:09.337Z,98457.64
2018-06-29T07:14:21.726Z,98460.28
2018-06-29T07:16:34.215Z,98461.63
2018-06-29T07:18:46.582Z,98457.38
2018-06-29T07:20:59.052Z,98462.66
2018-06-29T07:23:11.458Z,98456.22
2018-06-29T07:25:23.882Z,98466.42
2018-06-29T07:27:36.230Z,98461.70
2018-06-29T07:29:48.546Z,98462.12
2018-06-29T07:32:00.922Z,98467.98
2018-06-29T07:34:13.223Z,98470.55
2018-06-29T07:36:25.670Z,98467.17
2018-06-29T07:38:38.188Z,98469.52
2018-06-29T07:40:50.509Z,98473.08
2018-06-29T07:43:02.874Z,98467.63
2018-06-29T07:45:15.285Z,98476.57
2018-06-29T07:47:28.178Z,98479.88
2018-06-29T07:49:40.522Z,98479.63
2018-06-29T07:51:52.990Z,98474.92
2018-06-29T07:54:05.298Z,98473.84
2018-06-29T07:56:17.721Z,98464.36
2018-06-29T07:58:30.086Z,98464.53
2018-06-29T08:00:42.513Z,98458.76
2018-06-29T08:02:54.864Z,98462.14
2018-06-29T08:05:07.172Z,98463.84
2018-06-29T08:07:19.496Z,98469.81
2018-06-29T08:09:32.239Z,98471.64
2018-06-29T08:11:44.551Z,98471.61
2018-06-29T08:13:57.108Z,98470.09
2018-06-29T08:16:09.538Z,98468.77
2018-06-29T08:18:22.631Z,98469.43
2018-06-29T08:20:34.997Z,98470.64
2018-06-29T08:22:47.335Z,98466.68
2018-06-29T08:25:14.504Z,98471.77
2018-06-29T08:27:26.878Z,98477.30
2018-06-29T08:29:39.218Z,98472.78
2018-06-29T08:31:51.554Z,98468.13
2018-06-29T08:34:04.050Z,98471.17
2018-06-29T08:36:16.510Z,98468.30
2018-06-29T08:38:28.864Z,98465.62
2018-06-29T08:40:41.341Z,98461.67
2018-06-29T08:42:53.691Z,98468.86
2018-06-29T08:45:06.983Z,98462.09
2018-06-29T08:47:19.390Z,98459.45
2018-06-29T08:49:31.860Z,98466.75
2018-06-29T08:51:44.304Z,98465.27
2018-06-29T08:53:56.662Z,98464.04
2018-06-29T08:56:09.159Z,98470.50
2018-06-29T08:58:21.707Z,98464.95
2018-06-29T09:00:34.190Z,98470.31
2018-06-29T09:02:48.257Z,98475.02
2018-06-29T09:05:00.687Z,98469.80
2018-06-29T09:07:13.134Z,98470.52
2018-06-29T09:09:26.103Z,98470.42
2018-06-29T09:11:38.818Z,98464.36
2018-06-29T09:13:51.241Z,98464.45
2018-06-29T09:16:03.642Z,98457.73
2018-06-29T09:18:16.234Z,98456.00
2018-06-29T09:20:28.658Z,98455.08
2018-06-29T09:22:41.087Z,98448.55
2018-06-29T09:24:53.490Z,98448.25
2018-06-29T09:27:05.934Z,98447.58
2018-06-29T09:29:18.317Z,98446.41
2018-06-29T09:31:32.115Z,98451.39
2018-06-29T09:33:45.942Z,98444.42
2018-06-29T09:35:58.355Z,98441.42
2018-06-29T09:38:10.663Z,98446.83
2018-06-29T09:40:23.055Z,98440.34
2018-06-29T09:42:35.788Z,98441.97
2018-06-29T09:44:48.166Z,98438.98
2018-06-29T09:47:01.838Z,98437.79
2018-06-29T09:49:14.223Z,98447.34
2018-06-29T09:51:27.259Z,98447.67
2018-06-29T09:53:39.620Z,98447.67
2018-06-29T09:55:53.151Z,98446.34
2018-06-29T09:58:05.631Z,98449.31
2018-06-29T10:00:27.406Z,98444.09
2018-06-29T10:02:41.441Z,98446.77
2018-06-29T10:04:53.899Z,98439.37
2018-06-29T10:07:06.471Z,98442.53
2018-06-29T10:09:20.653Z,98435.66
2018-06-29T10:11:34.785Z,98434.31
2018-06-29T10:13:47.147Z,98429.19
2018-06-29T10:15:59.579Z,98432.95
2018-06-29T10:18:11.981Z,98430.79
2018-06-29T10:20:24.631Z,98433.44
2018-06-29T10:22:36.939Z,98430.11
2018-06-29T10:24:51.062Z,98423.11
2018-06-29T10:27:03.644Z,98419.23
2018-06-29T10:29:17.380Z,98424.55
2018-06-29T10:31:30.597Z,98423.05
2018-06-29T10:33:43.007Z,98422.85
2018-06-29T10:35:55.500Z,98414.81
2018-06-29T10:38:08.370Z,98410.88
2018-06-29T10:40:20.886Z,98409.03
2018-06-29T10:42:33.249Z,98405.47
2018-06-29T10:44:45.974Z,98407.42
2018-06-29T10:46:59.142Z,98402.61
2018-06-29T10:49:12.670Z,98392.80
2018-06-29T10:51:26.278Z,98398.63
2018-06-29T10:53:38.671Z,98397.65
2018-06-29T10:55:51.075Z,98393.91
2018-06-29T10:58:03.414Z,98393.45
2018-06-29T11:00:15.896Z,98392.11
2018-06-29T11:02:28.979Z,98391.24
2018-06-29T11:04:41.626Z,98387.64
2018-06-29T11:06:54.285Z,98388.16
2018-06-29T11:09:09.390Z,98385.45
2018-06-29T11:11:21.737Z,98380.43
2018-06-29T11:13:34.749Z,98375.13
2018-06-29T11:15:47.156Z,98388.13
2018-06-29T11:18:02.917Z,98381.45
2018-06-29T11:20:15.368Z,98376.34
2018-06-29T11:22:28.302Z,98372.74
2018-06-29T11:24:40.778Z,98377.90
2018-06-29T11:26:53.223Z,98376.89
2018-06-29T11:29:05.623Z,98378.16
2018-06-29T11:31:18.009Z,98367.49
2018-06-29T11:33:30.407Z,98372.65
2018-06-29T11:35:42.781Z,98369.25
2018-06-29T11:37:55.133Z,98364.94
2018-06-29T11:40:07.587Z,98360.17
2018-06-29T11:42:20.018Z,98354.69
2018-06-29T11:44:33.211Z,98353.02
2018-06-29T11:46:45.611Z,98354.15
2018-06-29T11:48:58.447Z,98355.86
2018-06-29T11:51:10.972Z,98352.45
2018-06-29T11:53:23.346Z,98344.66
2018-06-29T11:55:35.855Z,98353.25
2018-06-29T11:57:48.375Z,98348.58
2018-06-29T12:00:01.320Z,98337.56
2018-06-29T12:02:13.706Z,98339.51
2018-06-29T12:04:27.302Z,98339.34
2018-06-29T12:06:40.103Z,98333.36
2018-06-29T12:08:52.587Z,98333.94
2018-06-29T12:11:06.585Z,98337.19
2018-06-29T12:13:19.107Z,98335.58
2018-06-29T12:15:31.514Z,98331.88
2018-06-29T12:17:43.929Z,98336.33
2018-06-29T12:19:58.511Z,98334.38
2018-06-29T12:22:11.070Z,98334.83
2018-06-29T12:24:25.224Z,98331.77
2018-06-29T12:26:39.282Z,98331.77
2018-06-29T12:28:53.763Z,98328.23
2018-06-29T12:31:06.803Z,98328.30
2018-06-29T12:33:19.190Z,98340.28
2018-06-29T12:35:32.754Z,98326.63
2018-06-29T12:37:45.535Z,98321.89
2018-06-29T12:39:59.014Z,98327.21
2018-06-29T12:42:12.363Z,98322.02
2018-06-29T12:44:24.796Z,98315.91
2018-06-29T12:46:37.218Z,98314.53
2018-06-29T12:48:54.714Z,98312.32
2018-06-29T12:51:07.134Z,98308.84
2018-06-29T12:53:21.514Z,98319.07
2018-06-29T12:55:34.051Z,98310.83
2018-06-29T12:57:46.530Z,98310.00
2018-06-29T12:59:58.844Z,98308.48
2018-06-29T13:02:12.401Z,98314.02
2018-06-29T13:04:24.816Z,98309.07
2018-06-29T13:06:37.454Z,98313.12
2018-06-29T13:08:51.166Z,98302.63
2018-06-29T13:13:21.959Z,98291.08
2018-06-29T13:15:34.349Z,98286.77
2018-06-29T13:17:49.011Z,98289.14
2018-06-29T13:20:03.070Z,98283.31
2018-06-29T13:22:15.763Z,98283.16
2018-06-29T13:24:28.727Z,98293.64
2018-06-29T13:26:42.070Z,98283.32
2018-06-29T13:28:55.577Z,98286.52
2018-06-29T13:31:08.252Z,98285.55
2018-06-29T13:33:21.122Z,98282.25
2018-06-29T13:35:34.372Z,98278.16
2018-06-29T13:37:47.023Z,98275.36
2018-06-29T13:39:59.435Z,98270.77
2018-06-29T13:42:12.482Z,98275.75
2018-06-29T13:44:24.976Z,98275.31
2018-06-29T13:46:37.401Z,98272.55
2018-06-29T13:48:50.924Z,98256.48
2018-06-29T13:51:03.510Z,98252.91
2018-06-29T13:53:15.932Z,98253.80
2018-06-29T13:55:28.353Z,98257.21
2018-06-29T13:57:42.399Z,98250.63
2018-06-29T13:59:56.883Z,98237.78
2018-06-29T14:02:10.271Z,98250.00
2018-06-29T14:04:22.632Z,98253.09
2018-06-29T14:06:35.363Z,98248.42
2018-06-29T14:08:48.384Z,98251.91
2018-06-29T14:11:00.770Z,98251.28
2018-06-29T14:13:13.218Z,98248.91
2018-06-29T14:15:26.899Z,98242.94
2018-06-29T14:17:39.870Z,98240.91
2018-06-29T14:19:52.664Z,98237.20
2018-06-29T14:22:12.131Z,98239.51
2018-06-29T14:24:28.660Z,98227.61
2018-06-29T14:26:44.951Z,98227.97
2018-06-29T14:28:58.028Z,98227.75
2018-06-29T14:31:10.293Z,98227.22
2018-06-29T14:33:22.997Z,98229.06
2018-06-29T14:35:38.335Z,98228.92
2018-06-29T14:37:52.478Z,98223.59
2018-06-29T14:40:06.686Z,98227.56
2018-06-29T14:42:19.153Z,98227.81
2018-06-29T14:44:31.774Z,98230.48
2018-06-29T14:46:44.126Z,98226.87
2018-06-29T14:48:57.595Z,98227.59
2018-06-29T14:51:10.706Z,98228.69
2018-06-29T14:53:23.067Z,98221.80
2018-06-29T14:55:35.574Z,98219.02
2018-06-29T14:57:48.051Z,98219.77
2018-06-29T15:00:04.908Z,98216.08
2018-06-29T15:02:18.139Z,98218.31
2018-06-29T15:04:30.530Z,98221.25
2018-06-29T15:06:42.994Z,98209.98
2018-06-29T15:08:55.563Z,98210.06
2018-06-29T15:11:08.152Z,98209.30
2018-06-29T15:13:21.029Z,98215.23
2018-06-29T15:15:33.503Z,98213.05
2018-06-29T15:17:46.205Z,98212.41
2018-06-29T15:19:58.502Z,98211.08
2018-06-29T15:22:10.987Z,98212.35
2018-06-29T15:24:23.354Z,98207.72
2018-06-29T15:26:35.766Z,98211.50
2018-06-29T15:28:49.174Z,98205.05
2018-06-29T15:31:01.507Z,98207.98
2018-06-29T15:33:15.000Z,98206.30
2018-06-29T15:35:27.402Z,98206.12
2018-06-29T15:37:39.889Z,98205.69
2018-06-29T15:39:52.390Z,98208.06
2018-06-29T15:42:04.900Z,98197.70
2018-06-29T15:44:18.083Z,98203.41
2018-06-29T15:46:30.846Z,98195.98
2018-06-29T15:48:43.374Z,98196.89
2018-06-29T15:50:55.783Z,98194.01
2018-06-29T15:53:08.190Z,98195.28
2018-06-29T15:55:22.296Z,98188.00
2018-06-29T15:57:35.301Z,98185.39
2018-06-29T15:59:47.830Z,98185.99
2018-06-29T16:02:00.323Z,98179.42
2018-06-29T16:04:12.882Z,98188.40
2018-06-29T16:06:25.705Z,98192.19
2018-06-29T16:08:39.750Z,98195.47
2018-06-29T16:10:52.173Z,98186.44
2018-06-29T16:13:04.694Z,98191.43
2018-06-29T16:15:17.112Z,98183.12
2018-06-29T16:17:30.141Z,98184.46
2018-06-29T16:19:43.191Z,98187.03
2018-06-29T16:21:57.023Z,98178.64
2018-06-29T16:24:09.804Z,98180.61
2018-06-29T16:26:22.210Z,98185.85
2018-06-29T16:28:35.572Z,98186.39
2018-06-29T16:30:48.052Z,98176.56
2018-06-29T16:33:00.580Z,98179.66
2018-06-29T16:35:13.231Z,98174.22
2018-06-29T16:37:25.817Z,98180.66
2018-06-29T16:39:38.283Z,98175.18
2018-06-29T16:41:50.881Z,98167.69
2018-06-29T16:44:03.323Z,98168.09
2018-06-29T16:46:19.355Z,98167.03
2018-06-29T16:48:31.849Z,98161.52
2018-06-29T16:50:44.403Z,98163.03
2018-06-29T16:52:56.891Z,98163.66
2018-06-29T16:55:09.329Z,98161.18
2018-06-29T16:57:23.784Z,98159.76
2018-06-29T16:59:36.327Z,98153.58
2018-06-29T17:01:48.723Z,98155.75
2018-06-29T17:04:01.187Z,98158.91
2018-06-29T17:06:16.825Z,98155.73
2018-06-29T17:08:29.248Z,98153.97
2018-06-29T17:10:41.658Z,98155.22
2018-06-29T17:12:54.044Z,98152.03
2018-06-29T17:15:08.857Z,98152.03
2018-06-29T17:17:21.232Z,98148.13
2018-06-29T17:19:35.504Z,98152.94
2018-06-29T17:21:48.776Z,98157.97
2018-06-29T17:24:02.249Z,98154.67
2018-06-29T17:26:14.712Z,98149.45
2018-06-29T17:28:27.075Z,98150.67
2018-06-29T17:30:39.527Z,98149.34
2018-06-29T17:32:52.359Z,98154.67
2018-06-29T17:35:06.300Z,98155.58
2018-06-29T17:37:18.795Z,98148.70
2018-06-29T17:39:32.251Z,98151.34
2018-06-29T17:41:44.646Z,98151.03
2018-06-29T17:43:57.001Z,98150.09
2018-06-29T17:46:11.125Z,98150.39
2018-06-29T17:48:23.645Z,98150.91
2018-06-29T17:50:36.041Z,98147.61
2018-06-29T17:52:48.538Z,98153.33
2018-06-29T17:55:00.943Z,98157.20
2018-06-29T17:57:13.674Z,98159.80
2018-06-29T17:59:26.211Z,98160.88
2018-06-29T18:01:38.594Z,98160.95
2018-06-29T18:03:50.983Z,98162.58
2018-06-29T18:06:03.496Z,98162.02
2018-06-29T18:08:15.902Z,98160.64
2018-06-29T18:10:28.221Z,98163.08
2018-06-29T18:12:40.790Z,98169.81
2018-06-29T18:14:53.053Z,98168.09
2018-06-29T18:17:05.510Z,98168.17
2018-06-29T18:19:18.007Z,98166.30
2018-06-29T18:21:30.461Z,98167.20
2018-06-29T18:23:42.998Z,98167.89
2018-06-29T18:25:55.385Z,98167.24
2018-06-29T18:28:07.893Z,98167.41
2018-06-29T18:30:20.417Z,98164.45
2018-06-29T18:32:32.818Z,98165.95
2018-06-29T18:34:45.286Z,98168.30
2018-06-29T18:36:57.603Z,98163.74
2018-06-29T18:39:12.547Z,98163.44
2018-06-29T18:41:25.131Z,98170.98
2018-06-29T18:43:37.589Z,98167.06
2018-06-29T18:45:50.109Z,98166.23
2018-06-29T18:48:02.730Z,98167.00
2018-06-29T18:50:15.191Z,98173.95
2018-06-29T18:52:27.576Z,98170.98
2018-06-29T18:54:40.169Z,98170.53
2018-06-29T18:56:52.570Z,98169.08
2018-06-29T18:59:04.970Z,98176.44
2018-06-29T19:01:17.508Z,98177.73
2018-06-29T19:03:29.904Z,98178.41
2018-06-29T19:05:42.647Z,98176.40
2018-06-29T19:07:55.086Z,98175.23
2018-06-29T19:10:07.505Z,98174.21
2018-06-29T19:12:19.927Z,98183.09
2018-06-29T19:14:32.464Z,98181.80
2018-06-29T19:16:44.815Z,98184.19
2018-06-29T19:18:57.217Z,98184.28
2018-06-29T19:21:09.669Z,98183.34
2018-06-29T19:23:21.978Z,98185.73
2018-06-29T19:25:34.425Z,98182.64
2018-06-29T19:27:47.009Z,98181.55
2018-06-29T19:29:59.434Z,98189.23
2018-06-29T19:32:12.850Z,98180.41
2018-06-29T19:34:25.383Z,98182.48
2018-06-29T19:36:37.794Z,98183.34
2018-06-29T19:38:50.236Z,98192.77
2018-06-29T19:41:02.881Z,98190.31
2018-06-29T19:43:15.286Z,98191.05
2018-06-29T19:45:28.011Z,98199.98
2018-06-29T19:47:40.414Z,98204.48
2018-06-29T19:49:52.753Z,98197.07
2018-06-29T19:52:05.115Z,98209.69
2018-06-29T19:54:18.174Z,98202.89
2018-06-29T19:56:30.578Z,98211.86
2018-06-29T19:58:43.365Z,98211.36
2018-06-29T20:00:55.834Z,98211.38
2018-06-29T20:03:08.169Z,98215.87
2018-06-29T20:05:20.848Z,98212.20
2018-06-29T20:07:33.266Z,98218.66
2018-06-29T20:09:45.745Z,98221.48
2018-06-29T20:11:58.110Z,98219.52
2018-06-29T20:14:13.022Z,98218.99
2018-06-29T20:16:25.497Z,98218.02
2018-06-29T20:18:37.942Z,98222.14
2018-06-29T20:20:50.320Z,98219.84
2018-06-29T20:23:02.954Z,98216.02
2018-06-29T20:25:15.352Z,98218.84
2018-06-29T20:27:28.291Z,98225.09
2018-06-29T20:29:40.942Z,98229.39
2018-06-29T20:31:53.841Z,98226.56
2018-06-29T20:34:06.429Z,98227.70
2018-06-29T20:36:19.508Z,98223.38
2018-06-29T20:38:32.010Z,98229.98
2018-06-29T20:40:44.516Z,98221.55
2018-06-29T20:42:58.729Z,98223.69
2018-06-29T20:45:11.308Z,98224.33
2018-06-29T20:47:24.217Z,98227.28
2018-06-29T20:49:36.748Z,98237.52
2018-06-29T20:51:49.468Z,98234.69
2018-06-29T20:54:02.271Z,98240.47
2018-06-29T20:56:14.765Z,98239.28
2018-06-29T20:58:27.165Z,98239.12
2018-06-29T21:00:39.797Z,98234.09
2018-06-29T21:02:52.450Z,98230.61
2018-06-29T21:05:05.186Z,98235.05
2018-06-29T21:07:18.419Z,98239.30
2018-06-29T21:09:31.347Z,98233.96
2018-06-29T21:11:43.902Z,98235.90
2018-06-29T21:13:57.161Z,98233.69
2018-06-29T21:16:10.653Z,98231.55
2018-06-29T21:18:24.187Z,98238.81
2018-06-29T21:20:38.486Z,98239.82
2018-06-29T21:22:51.355Z,98234.68
2018-06-29T21:25:04.139Z,98232.53
2018-06-29T21:27:17.791Z,98230.02
2018-06-29T21:29:30.646Z,98233.30
2018-06-29T21:31:43.967Z,98238.05
2018-06-29T21:33:56.536Z,98236.38
2018-06-29T21:36:09.765Z,98238.69
2018-06-29T21:38:23.257Z,98233.23
2018-06-29T21:40:36.727Z,98234.40
2018-06-29T21:42:49.319Z,98236.02
2018-06-29T21:45:02.209Z,98235.00
2018-06-29T21:47:14.729Z,98235.80
2018-06-29T21:49:27.124Z,98236.91
2018-06-29T21:51:39.565Z,98241.80
2018-06-29T21:53:52.354Z,98240.42
2018-06-29T21:56:05.160Z,98235.88
2018-06-29T21:58:17.843Z,98238.48
2018-06-29T22:00:37.919Z,98230.24
2018-06-29T22:02:50.844Z,98236.34
2018-06-29T22:05:03.446Z,98229.75
2018-06-29T22:07:15.833Z,98224.77
2018-06-29T22:09:28.752Z,98230.38
2018-06-29T22:11:42.115Z,98219.17
2018-06-29T22:13:55.427Z,98219.73
2018-06-29T22:16:07.954Z,98217.70
2018-06-29T22:18:20.381Z,98216.34
2018-06-29T22:20:32.881Z,98218.25
2018-06-29T22:22:45.698Z,98215.55
2018-06-29T22:25:00.344Z,98215.02
2018-06-29T22:27:12.794Z,98212.19
2018-06-29T22:29:25.262Z,98215.35
2018-06-29T22:31:38.102Z,98215.02
2018-06-29T22:33:51.447Z,98210.87
2018-06-29T22:36:04.675Z,98212.19
2018-06-29T22:38:17.227Z,98208.73
2018-06-29T22:40:29.964Z,98207.86
2018-06-29T22:42:42.514Z,98207.17
2018-06-29T22:44:54.942Z,98211.09
2018-06-29T22:47:08.004Z,98212.33
2018-06-29T22:49:21.422Z,98208.59
2018-06-29T22:51:34.251Z,98211.39
2018-06-29T22:53:46.672Z,98208.69
2018-06-29T22:56:00.536Z,98206.91
2018-06-29T22:58:13.406Z,98208.84
2018-06-29T23:00:26.054Z,98208.52
2018-06-29T23:02:38.932Z,98203.73
2018-06-29T23:04:52.933Z,98208.69
2018-06-29T23:07:08.463Z,98204.45
2018-06-29T23:09:21.624Z,98203.29
2018-06-29T23:11:35.079Z,98203.73
2018-06-29T23:13:47.820Z,98208.15
2018-06-29T23:16:01.103Z,98208.59
2018-06-29T23:18:13.957Z,98208.50
2018-06-29T23:20:26.994Z,98208.80
2018-06-29T23:22:40.464Z,98206.45
2018-06-29T23:24:52.894Z,98203.77
2018-06-29T23:27:05.946Z,98205.36
2018-06-29T23:29:19.099Z,98208.28
2018-06-29T23:31:31.971Z,98200.39
2018-06-29T23:33:44.454Z,98203.80
2018-06-29T23:35:58.563Z,98202.77
2018-06-29T23:38:12.135Z,98197.32
2018-06-29T23:40:24.552Z,98196.78
2018-06-29T23:42:37.548Z,98193.94
2018-06-29T23:44:50.845Z,98196.24
2018-06-29T23:47:03.352Z,98198.66
2018-06-29T23:49:16.613Z,98188.09
2018-06-29T23:51:30.047Z,98194.25
2018-06-29T23:53:42.704Z,98188.16
2018-06-29T23:55:56.135Z,98185.53
2018-06-29T23:58:09.076Z,98186.80
